createdAt,value
2018-11-22T12:20:01.585Z,27.23
2018-11-22T12:25:06.202Z,24.47
2018-11-22T12:30:15.219Z,27.67
2018-11-22T12:35:25.306Z,20.87
2018-11-22T12:40:29.023Z,22.93
2018-11-22T12:45:33.169Z,25.67
2018-11-22T12:50:36.722Z,26.33
2018-11-22T12:55:40.248Z,23.05
2018-11-22T13:00:44.379Z,30.57
2018-11-22T13:05:48.014Z,21.97
2018-11-22T13:10:51.669Z,24.43
2018-11-22T13:15:56.803Z,23.83
2018-11-22T13:21:01.468Z,26.77
2018-11-22T13:26:05.050Z,24.85
2018-11-22T13:31:08.646Z,21.97
2018-11-22T13:36:12.253Z,24.23
2018-11-22T13:41:15.809Z,34.53
2018-11-22T13:46:19.358Z,25.60
2018-11-22T13:51:22.965Z,28.03
2018-11-22T13:56:26.680Z,25.07
2018-11-22T14:01:30.320Z,19.77
2018-11-22T14:06:34.062Z,21.37
2018-11-22T14:11:38.017Z,27.93
2018-11-22T14:16:41.787Z,21.87
2018-11-22T14:21:45.477Z,21.97
2018-11-22T14:26:49.454Z,20.07
2018-11-22T14:31:53.569Z,21.27
2018-11-22T14:36:57.386Z,22.40
2018-11-22T14:42:01.286Z,22.53
2018-11-22T14:47:05.204Z,26.00
2018-11-22T14:52:09.212Z,25.00
2018-11-22T14:57:13.144Z,22.80
2018-11-22T15:02:16.759Z,28.30
2018-11-22T15:07:28.430Z,25.67
2018-11-22T15:12:25.846Z,29.43
2018-11-22T15:17:29.725Z,27.77
2018-11-22T15:22:33.740Z,26.60
2018-11-22T15:27:37.487Z,30.13
2018-11-22T15:32:41.566Z,31.60
2018-11-22T15:37:45.987Z,34.83
2018-11-22T15:42:51.357Z,27.37
2018-11-22T15:47:55.449Z,30.10
2018-11-22T15:53:00.105Z,31.13
2018-11-22T15:58:03.999Z,34.30
2018-11-22T16:03:09.220Z,50.60
2018-11-22T16:08:13.855Z,35.50
2018-11-22T16:13:19.533Z,32.23
2018-11-22T16:18:23.198Z,39.33
2018-11-22T16:23:28.325Z,36.93
2018-11-22T16:28:32.400Z,48.93
2018-11-22T16:33:36.127Z,62.95
2018-11-22T16:38:40.713Z,58.73
2018-11-22T16:43:44.799Z,56.97
2018-11-22T16:48:48.983Z,38.27
2018-11-22T16:53:52.839Z,44.87
2018-11-22T16:58:57.981Z,43.90
2018-11-22T17:04:08.821Z,44.63
2018-11-22T17:09:14.784Z,35.03
2018-11-22T17:14:19.589Z,39.53
2018-11-22T17:19:24.144Z,47.83
2018-11-22T17:24:28.078Z,33.77
2018-11-22T17:29:32.397Z,35.90
2018-11-22T17:34:36.831Z,35.40
2018-11-22T17:39:40.693Z,33.47
2018-11-22T17:44:44.546Z,30.97
2018-11-22T17:49:48.265Z,31.30
2018-11-22T17:54:52.080Z,34.07
2018-11-22T17:59:55.863Z,31.10
2018-11-22T18:04:59.725Z,25.83
2018-11-22T18:10:04.024Z,31.40
2018-11-22T18:15:09.489Z,29.73
2018-11-22T18:20:17.057Z,30.43
2018-11-22T18:25:22.882Z,30.53
2018-11-22T18:30:27.988Z,30.33
2018-11-22T18:35:31.762Z,28.03
2018-11-22T18:40:37.511Z,28.83
2018-11-22T18:45:42.681Z,29.33
2018-11-22T18:50:47.094Z,34.20
2018-11-22T18:55:51.746Z,34.93
2018-11-22T19:00:55.626Z,27.67
2018-11-22T19:06:00.336Z,33.63
2018-11-22T19:11:04.323Z,36.83
2018-11-22T19:16:08.823Z,42.17
2018-11-22T19:21:12.414Z,33.23
2018-11-22T19:26:16.299Z,34.73
2018-11-22T19:31:21.771Z,36.63
2018-11-22T19:36:26.250Z,38.25
2018-11-22T19:41:30.095Z,28.07
2018-11-22T19:46:34.564Z,33.33
2018-11-22T19:51:38.094Z,36.03
2018-11-22T19:56:41.675Z,29.97
2018-11-22T20:01:45.230Z,32.43
2018-11-22T20:06:49.613Z,25.50
2018-11-22T20:11:54.891Z,27.80
2018-11-22T20:16:59.139Z,28.10
2018-11-22T20:22:02.953Z,34.17
2018-11-22T20:27:06.543Z,25.37
2018-11-22T20:32:11.027Z,28.70
2018-11-22T20:37:15.130Z,27.82
2018-11-22T20:42:18.855Z,24.47
2018-11-22T20:47:22.495Z,28.80
2018-11-22T20:52:26.738Z,22.93
2018-11-22T20:57:31.317Z,29.67
2018-11-22T21:02:35.102Z,28.60
2018-11-22T21:07:39.520Z,25.57
2018-11-22T21:12:43.446Z,30.13
2018-11-22T21:17:48.242Z,32.33
2018-11-22T21:22:51.884Z,34.80
2018-11-22T21:27:56.344Z,31.23
2018-11-22T21:33:00.882Z,32.53
2018-11-22T21:38:06.229Z,32.33
2018-11-22T21:43:09.779Z,40.73
2018-11-22T21:48:15.003Z,29.40
2018-11-22T21:53:18.979Z,33.93
2018-11-22T21:58:22.740Z,28.33
2018-11-22T22:03:27.011Z,33.30
2018-11-22T22:08:32.412Z,34.07
2018-11-22T22:13:36.037Z,34.00
2018-11-22T22:18:40.101Z,28.73
2018-11-22T22:23:43.977Z,35.53
2018-11-22T22:28:47.799Z,30.73
2018-11-22T22:34:08.782Z,32.63
2018-11-22T22:39:16.360Z,26.27
2018-11-22T22:44:20.087Z,29.10
2018-11-22T22:49:24.602Z,30.90
2018-11-22T22:54:28.385Z,26.33
2018-11-22T22:59:31.885Z,32.80
2018-11-22T23:04:35.411Z,28.20
2018-11-22T23:09:38.994Z,29.50
2018-11-22T23:14:42.638Z,28.30
2018-11-22T23:19:46.453Z,31.83
2018-11-22T23:24:50.444Z,26.90
2018-11-22T23:29:54.321Z,40.23
2018-11-22T23:34:58.412Z,32.67
2018-11-22T23:40:02.439Z,26.83
2018-11-22T23:45:08.189Z,25.53
2018-11-22T23:50:16.737Z,32.00
2018-11-22T23:55:20.529Z,32.87
